sensor_id;sensor_type;location;lat;lon;timestamp;P1;durP1;ratioP1;P2;durP2;ratioP2
44228;SDS011;29904;51.058;5.378;2023-03-15T00:02:01;10.32;;;4.75;;
44228;SDS011;29904;51.058;5.378;2023-03-15T00:04:27;12.02;;;4.78;;
44228;SDS011;29904;51.058;5.378;2023-03-15T00:06:53;10.60;;;3.97;;
44228;SDS011;29904;51.058;5.378;2023-03-15T00:09:19;9.60;;;3.15;;
44228;SDS011;29904;51.058;5.378;2023-03-15T00:11:46;6.55;;;2.80;;
44228;SDS011;29904;51.058;5.378;2023-03-15T00:14:13;7.05;;;2.83;;
44228;SDS011;29904;51.058;5.378;2023-03-15T00:16:39;6.05;;;2.65;;
44228;SDS011;29904;51.058;5.378;2023-03-15T00:19:06;4.90;;;2.10;;
44228;SDS011;29904;51.058;5.378;2023-03-15T00:21:32;6.17;;;1.90;;
44228;SDS011;29904;51.058;5.378;2023-03-15T00:23:59;5.18;;;2.17;;
44228;SDS011;29904;51.058;5.378;2023-03-15T00:26:25;3.60;;;1.80;;
44228;SDS011;29904;51.058;5.378;2023-03-15T00:28:50;5.90;;;1.70;;
44228;SDS011;29904;51.058;5.378;2023-03-15T00:31:20;3.88;;;1.60;;
44228;SDS011;29904;51.058;5.378;2023-03-15T00:33:48;3.10;;;1.58;;
44228;SDS011;29904;51.058;5.378;2023-03-15T00:36:17;4.70;;;1.98;;
44228;SDS011;29904;51.058;5.378;2023-03-15T00:38:47;3.78;;;1.80;;
44228;SDS011;29904;51.058;5.378;2023-03-15T00:41:14;3.88;;;1.80;;
44228;SDS011;29904;51.058;5.378;2023-03-15T00:43:42;4.43;;;2.15;;
44228;SDS011;29904;51.058;5.378;2023-03-15T00:46:09;3.70;;;1.70;;
44228;SDS011;29904;51.058;5.378;2023-03-15T00:48:36;4.10;;;1.80;;
44228;SDS011;29904;51.058;5.378;2023-03-15T00:51:07;4.57;;;1.80;;
44228;SDS011;29904;51.058;5.378;2023-03-15T00:53:38;3.38;;;1.80;;
44228;SDS011;29904;51.058;5.378;2023-03-15T00:56:06;4.32;;;1.80;;
44228;SDS011;29904;51.058;5.378;2023-03-15T00:58:34;3.83;;;1.70;;
44228;SDS011;29904;51.058;5.378;2023-03-15T01:01:03;3.70;;;1.70;;
44228;SDS011;29904;51.058;5.378;2023-03-15T01:03:34;4.10;;;1.80;;
44228;SDS011;29904;51.058;5.378;2023-03-15T01:06:04;3.85;;;2.17;;
44228;SDS011;29904;51.058;5.378;2023-03-15T01:08:34;4.72;;;2.30;;
44228;SDS011;29904;51.058;5.378;2023-03-15T01:11:01;3.67;;;2.05;;
44228;SDS011;29904;51.058;5.378;2023-03-15T01:13:28;5.30;;;2.28;;
44228;SDS011;29904;51.058;5.378;2023-03-15T01:15:54;5.00;;;1.90;;
44228;SDS011;29904;51.058;5.378;2023-03-15T01:18:20;3.40;;;1.80;;
44228;SDS011;29904;51.058;5.378;2023-03-15T01:20:45;3.17;;;1.50;;
44228;SDS011;29904;51.058;5.378;2023-03-15T01:23:11;3.20;;;1.10;;
44228;SDS011;29904;51.058;5.378;2023-03-15T01:25:37;3.53;;;1.30;;
44228;SDS011;29904;51.058;5.378;2023-03-15T01:28:03;3.10;;;1.10;;
44228;SDS011;29904;51.058;5.378;2023-03-15T01:30:29;2.22;;;1.13;;
44228;SDS011;29904;51.058;5.378;2023-03-15T01:32:54;3.05;;;1.02;;
44228;SDS011;29904;51.058;5.378;2023-03-15T01:35:20;2.27;;;1.00;;
44228;SDS011;29904;51.058;5.378;2023-03-15T01:37:48;2.57;;;1.17;;
44228;SDS011;29904;51.058;5.378;2023-03-15T01:40:14;3.10;;;1.00;;
44228;SDS011;29904;51.058;5.378;2023-03-15T01:48:24;1.83;;;1.23;;
44228;SDS011;29904;51.058;5.378;2023-03-15T01:51:04;3.00;;;1.13;;
44228;SDS011;29904;51.058;5.378;2023-03-15T01:53:34;1.50;;;1.25;;
44228;SDS011;29904;51.058;5.378;2023-03-15T01:56:00;2.53;;;1.33;;
44228;SDS011;29904;51.058;5.378;2023-03-15T01:58:28;2.47;;;1.38;;
44228;SDS011;29904;51.058;5.378;2023-03-15T02:00:54;2.10;;;1.45;;
44228;SDS011;29904;51.058;5.378;2023-03-15T02:03:21;1.60;;;1.30;;
44228;SDS011;29904;51.058;5.378;2023-03-15T02:05:53;3.60;;;1.70;;
44228;SDS011;29904;51.058;5.378;2023-03-15T02:08:24;2.90;;;1.70;;
44228;SDS011;29904;51.058;5.378;2023-03-15T02:10:54;3.28;;;1.88;;
44228;SDS011;29904;51.058;5.378;2023-03-15T02:13:22;1.90;;;1.50;;
44228;SDS011;29904;51.058;5.378;2023-03-15T02:15:50;2.28;;;1.60;;
44228;SDS011;29904;51.058;5.378;2023-03-15T02:18:18;2.88;;;1.70;;
44228;SDS011;29904;51.058;5.378;2023-03-15T02:23:28;2.83;;;1.98;;
44228;SDS011;29904;51.058;5.378;2023-03-15T02:28:51;2.38;;;1.90;;
44228;SDS011;29904;51.058;5.378;2023-03-15T02:31:18;2.03;;;1.70;;
44228;SDS011;29904;51.058;5.378;2023-03-15T02:33:53;3.20;;;1.85;;
44228;SDS011;29904;51.058;5.378;2023-03-15T02:38:50;2.72;;;2.10;;
44228;SDS011;29904;51.058;5.378;2023-03-15T02:41:18;3.78;;;2.30;;
44228;SDS011;29904;51.058;5.378;2023-03-15T02:43:53;2.80;;;2.00;;
44228;SDS011;29904;51.058;5.378;2023-03-15T02:46:24;3.92;;;2.30;;
44228;SDS011;29904;51.058;5.378;2023-03-15T02:48:50;3.10;;;2.23;;
44228;SDS011;29904;51.058;5.378;2023-03-15T02:51:18;2.95;;;2.30;;
44228;SDS011;29904;51.058;5.378;2023-03-15T02:53:46;4.40;;;2.77;;
44228;SDS011;29904;51.058;5.378;2023-03-15T02:56:12;3.72;;;2.88;;
44228;SDS011;29904;51.058;5.378;2023-03-15T02:58:38;3.90;;;2.70;;
44228;SDS011;29904;51.058;5.378;2023-03-15T03:01:04;3.45;;;2.50;;
44228;SDS011;29904;51.058;5.378;2023-03-15T03:03:30;3.03;;;2.47;;
44228;SDS011;29904;51.058;5.378;2023-03-15T03:05:56;3.67;;;2.63;;
44228;SDS011;29904;51.058;5.378;2023-03-15T03:08:21;3.60;;;2.77;;
44228;SDS011;29904;51.058;5.378;2023-03-15T03:10:47;3.67;;;2.57;;
44228;SDS011;29904;51.058;5.378;2023-03-15T03:13:13;4.05;;;2.85;;
44228;SDS011;29904;51.058;5.378;2023-03-15T03:15:39;4.33;;;3.10;;
44228;SDS011;29904;51.058;5.378;2023-03-15T03:18:09;3.90;;;3.03;;
44228;SDS011;29904;51.058;5.378;2023-03-15T03:20:35;4.40;;;2.80;;
44228;SDS011;29904;51.058;5.378;2023-03-15T03:23:01;4.50;;;2.90;;
44228;SDS011;29904;51.058;5.378;2023-03-15T03:25:30;4.43;;;3.10;;
44228;SDS011;29904;51.058;5.378;2023-03-15T03:27:57;5.32;;;3.10;;
44228;SDS011;29904;51.058;5.378;2023-03-15T03:30:23;4.05;;;3.00;;
44228;SDS011;29904;51.058;5.378;2023-03-15T03:32:49;4.40;;;3.20;;
44228;SDS011;29904;51.058;5.378;2023-03-15T03:35:15;4.47;;;3.50;;
44228;SDS011;29904;51.058;5.378;2023-03-15T03:37:41;3.70;;;3.13;;
44228;SDS011;29904;51.058;5.378;2023-03-15T03:40:07;4.70;;;3.13;;
44228;SDS011;29904;51.058;5.378;2023-03-15T03:42:36;3.95;;;3.00;;
44228;SDS011;29904;51.058;5.378;2023-03-15T03:45:01;4.40;;;3.33;;
44228;SDS011;29904;51.058;5.378;2023-03-15T03:47:28;4.43;;;3.30;;
44228;SDS011;29904;51.058;5.378;2023-03-15T03:49:53;5.90;;;3.40;;
44228;SDS011;29904;51.058;5.378;2023-03-15T03:52:19;4.78;;;3.75;;
44228;SDS011;29904;51.058;5.378;2023-03-15T03:54:45;5.33;;;3.50;;
44228;SDS011;29904;51.058;5.378;2023-03-15T03:57:10;5.10;;;3.70;;
44228;SDS011;29904;51.058;5.378;2023-03-15T03:59:36;5.37;;;3.40;;
44228;SDS011;29904;51.058;5.378;2023-03-15T04:02:02;6.23;;;4.20;;
44228;SDS011;29904;51.058;5.378;2023-03-15T04:04:28;5.22;;;4.22;;
44228;SDS011;29904;51.058;5.378;2023-03-15T04:06:53;7.07;;;4.60;;
44228;SDS011;29904;51.058;5.378;2023-03-15T04:09:19;7.35;;;4.28;;
44228;SDS011;29904;51.058;5.378;2023-03-15T04:11:46;12.77;;;8.73;;
44228;SDS011;29904;51.058;5.378;2023-03-15T04:14:12;8.77;;;5.90;;
44228;SDS011;29904;51.058;5.378;2023-03-15T04:16:39;9.13;;;5.68;;
44228;SDS011;29904;51.058;5.378;2023-03-15T04:19:05;7.20;;;5.40;;
44228;SDS011;29904;51.058;5.378;2023-03-15T04:21:32;8.07;;;5.43;;
44228;SDS011;29904;51.058;5.378;2023-03-15T04:23:58;8.35;;;5.22;;
44228;SDS011;29904;51.058;5.378;2023-03-15T04:26:25;6.90;;;4.60;;
44228;SDS011;29904;51.058;5.378;2023-03-15T04:28:52;6.28;;;4.35;;
44228;SDS011;29904;51.058;5.378;2023-03-15T04:31:19;5.72;;;3.88;;
44228;SDS011;29904;51.058;5.378;2023-03-15T04:33:45;5.47;;;4.07;;
44228;SDS011;29904;51.058;5.378;2023-03-15T04:36:11;5.72;;;4.20;;
44228;SDS011;29904;51.058;5.378;2023-03-15T04:38:45;6.47;;;4.10;;
44228;SDS011;29904;51.058;5.378;2023-03-15T04:41:12;6.38;;;4.43;;
44228;SDS011;29904;51.058;5.378;2023-03-15T04:43:41;6.40;;;4.40;;
44228;SDS011;29904;51.058;5.378;2023-03-15T04:46:08;5.45;;;4.20;;
44228;SDS011;29904;51.058;5.378;2023-03-15T04:48:34;6.28;;;4.40;;
44228;SDS011;29904;51.058;5.378;2023-03-15T04:51:00;5.10;;;3.80;;
44228;SDS011;29904;51.058;5.378;2023-03-15T04:53:26;5.18;;;4.10;;
44228;SDS011;29904;51.058;5.378;2023-03-15T04:55:52;5.57;;;4.20;;
44228;SDS011;29904;51.058;5.378;2023-03-15T04:58:18;4.63;;;3.80;;
44228;SDS011;29904;51.058;5.378;2023-03-15T05:00:44;4.43;;;3.50;;
44228;SDS011;29904;51.058;5.378;2023-03-15T05:03:10;5.18;;;3.75;;
44228;SDS011;29904;51.058;5.378;2023-03-15T05:05:35;5.72;;;4.18;;
44228;SDS011;29904;51.058;5.378;2023-03-15T05:08:01;5.32;;;3.90;;
44228;SDS011;29904;51.058;5.378;2023-03-15T05:10:27;5.03;;;4.22;;
44228;SDS011;29904;51.058;5.378;2023-03-15T05:12:54;6.03;;;4.18;;
44228;SDS011;29904;51.058;5.378;2023-03-15T05:15:20;6.40;;;4.20;;
44228;SDS011;29904;51.058;5.378;2023-03-15T05:17:45;5.82;;;4.22;;
44228;SDS011;29904;51.058;5.378;2023-03-15T05:20:13;6.20;;;4.50;;
44228;SDS011;29904;51.058;5.378;2023-03-15T05:22:40;7.28;;;4.60;;
44228;SDS011;29904;51.058;5.378;2023-03-15T05:25:07;6.25;;;4.82;;
44228;SDS011;29904;51.058;5.378;2023-03-15T05:27:34;6.60;;;4.90;;
44228;SDS011;29904;51.058;5.378;2023-03-15T05:30:00;6.90;;;5.30;;
44228;SDS011;29904;51.058;5.378;2023-03-15T05:32:30;8.05;;;5.38;;
44228;SDS011;29904;51.058;5.378;2023-03-15T05:35:02;7.65;;;5.47;;
44228;SDS011;29904;51.058;5.378;2023-03-15T05:37:30;9.07;;;6.45;;
44228;SDS011;29904;51.058;5.378;2023-03-15T05:39:57;8.65;;;6.38;;
44228;SDS011;29904;51.058;5.378;2023-03-15T05:42:23;8.73;;;6.43;;
44228;SDS011;29904;51.058;5.378;2023-03-15T05:44:52;8.60;;;6.13;;
44228;SDS011;29904;51.058;5.378;2023-03-15T05:47:18;9.77;;;6.67;;
44228;SDS011;29904;51.058;5.378;2023-03-15T05:49:44;9.85;;;6.70;;
44228;SDS011;29904;51.058;5.378;2023-03-15T05:52:10;8.90;;;6.43;;
44228;SDS011;29904;51.058;5.378;2023-03-15T05:54:36;10.27;;;6.47;;
44228;SDS011;29904;51.058;5.378;2023-03-15T05:57:02;9.50;;;6.37;;
44228;SDS011;29904;51.058;5.378;2023-03-15T05:59:28;8.65;;;6.20;;
44228;SDS011;29904;51.058;5.378;2023-03-15T06:01:54;8.53;;;6.30;;
44228;SDS011;29904;51.058;5.378;2023-03-15T06:04:19;9.63;;;6.57;;
44228;SDS011;29904;51.058;5.378;2023-03-15T06:06:45;8.38;;;6.28;;
44228;SDS011;29904;51.058;5.378;2023-03-15T06:09:11;8.68;;;6.22;;
44228;SDS011;29904;51.058;5.378;2023-03-15T06:11:37;9.63;;;6.70;;
44228;SDS011;29904;51.058;5.378;2023-03-15T06:14:03;7.27;;;5.63;;
44228;SDS011;29904;51.058;5.378;2023-03-15T06:16:28;9.02;;;5.75;;
44228;SDS011;29904;51.058;5.378;2023-03-15T06:18:54;10.98;;;6.75;;
44228;SDS011;29904;51.058;5.378;2023-03-15T06:21:20;8.82;;;6.72;;
44228;SDS011;29904;51.058;5.378;2023-03-15T06:23:46;8.53;;;6.33;;
44228;SDS011;29904;51.058;5.378;2023-03-15T06:26:12;8.15;;;6.40;;
44228;SDS011;29904;51.058;5.378;2023-03-15T06:28:39;9.45;;;6.80;;
44228;SDS011;29904;51.058;5.378;2023-03-15T06:31:12;9.20;;;6.85;;
44228;SDS011;29904;51.058;5.378;2023-03-15T06:33:38;8.35;;;6.60;;
44228;SDS011;29904;51.058;5.378;2023-03-15T06:36:04;10.35;;;6.90;;
44228;SDS011;29904;51.058;5.378;2023-03-15T06:38:31;9.20;;;6.82;;
44228;SDS011;29904;51.058;5.378;2023-03-15T06:40:57;8.37;;;6.10;;
44228;SDS011;29904;51.058;5.378;2023-03-15T06:43:29;8.90;;;6.50;;
44228;SDS011;29904;51.058;5.378;2023-03-15T06:45:55;9.63;;;7.18;;
44228;SDS011;29904;51.058;5.378;2023-03-15T06:48:24;8.13;;;6.33;;
44228;SDS011;29904;51.058;5.378;2023-03-15T06:50:53;9.77;;;6.85;;
44228;SDS011;29904;51.058;5.378;2023-03-15T06:53:18;8.68;;;6.35;;
44228;SDS011;29904;51.058;5.378;2023-03-15T06:55:44;8.13;;;6.03;;
44228;SDS011;29904;51.058;5.378;2023-03-15T06:58:11;8.40;;;6.28;;
44228;SDS011;29904;51.058;5.378;2023-03-15T07:00:37;10.30;;;6.60;;
44228;SDS011;29904;51.058;5.378;2023-03-15T07:03:03;9.90;;;7.18;;
44228;SDS011;29904;51.058;5.378;2023-03-15T07:05:28;10.95;;;7.70;;
44228;SDS011;29904;51.058;5.378;2023-03-15T07:07:55;10.00;;;7.78;;
44228;SDS011;29904;51.058;5.378;2023-03-15T07:10:20;13.00;;;8.75;;
44228;SDS011;29904;51.058;5.378;2023-03-15T07:12:46;12.95;;;8.82;;
44228;SDS011;29904;51.058;5.378;2023-03-15T07:15:12;12.47;;;8.50;;
44228;SDS011;29904;51.058;5.378;2023-03-15T07:17:38;11.20;;;8.70;;
44228;SDS011;29904;51.058;5.378;2023-03-15T07:20:04;12.38;;;8.70;;
44228;SDS011;29904;51.058;5.378;2023-03-15T07:22:31;11.20;;;7.68;;
44228;SDS011;29904;51.058;5.378;2023-03-15T07:24:57;11.15;;;8.27;;
44228;SDS011;29904;51.058;5.378;2023-03-15T07:27:23;10.35;;;8.13;;
44228;SDS011;29904;51.058;5.378;2023-03-15T07:29:49;12.30;;;9.60;;
44228;SDS011;29904;51.058;5.378;2023-03-15T07:32:14;11.87;;;9.90;;
44228;SDS011;29904;51.058;5.378;2023-03-15T07:34:40;12.32;;;9.38;;
44228;SDS011;29904;51.058;5.378;2023-03-15T07:37:07;13.00;;;8.50;;
44228;SDS011;29904;51.058;5.378;2023-03-15T07:39:33;10.63;;;8.10;;
44228;SDS011;29904;51.058;5.378;2023-03-15T07:41:58;11.30;;;8.32;;
44228;SDS011;29904;51.058;5.378;2023-03-15T07:44:24;10.70;;;8.20;;
44228;SDS011;29904;51.058;5.378;2023-03-15T07:46:50;11.60;;;7.88;;
44228;SDS011;29904;51.058;5.378;2023-03-15T07:49:16;11.43;;;8.50;;
44228;SDS011;29904;51.058;5.378;2023-03-15T07:51:42;10.85;;;7.70;;
44228;SDS011;29904;51.058;5.378;2023-03-15T07:54:08;10.93;;;8.18;;
44228;SDS011;29904;51.058;5.378;2023-03-15T07:56:34;12.13;;;8.18;;
44228;SDS011;29904;51.058;5.378;2023-03-15T07:58:59;10.10;;;7.18;;
44228;SDS011;29904;51.058;5.378;2023-03-15T08:01:25;10.55;;;7.25;;
44228;SDS011;29904;51.058;5.378;2023-03-15T08:03:51;7.40;;;5.68;;
44228;SDS011;29904;51.058;5.378;2023-03-15T08:06:16;9.25;;;6.47;;
44228;SDS011;29904;51.058;5.378;2023-03-15T08:08:42;9.77;;;6.60;;
44228;SDS011;29904;51.058;5.378;2023-03-15T08:11:08;11.33;;;7.57;;
44228;SDS011;29904;51.058;5.378;2023-03-15T08:13:34;8.35;;;6.30;;
44228;SDS011;29904;51.058;5.378;2023-03-15T08:16:00;10.13;;;7.03;;
44228;SDS011;29904;51.058;5.378;2023-03-15T08:18:26;10.35;;;6.80;;
44228;SDS011;29904;51.058;5.378;2023-03-15T08:20:55;9.63;;;7.20;;
44228;SDS011;29904;51.058;5.378;2023-03-15T08:23:21;10.32;;;6.85;;
44228;SDS011;29904;51.058;5.378;2023-03-15T08:25:47;9.32;;;6.60;;
44228;SDS011;29904;51.058;5.378;2023-03-15T08:28:13;9.00;;;6.90;;
44228;SDS011;29904;51.058;5.378;2023-03-15T08:30:39;10.00;;;7.15;;
44228;SDS011;29904;51.058;5.378;2023-03-15T08:33:05;10.50;;;7.05;;
44228;SDS011;29904;51.058;5.378;2023-03-15T08:35:32;9.00;;;5.72;;
44228;SDS011;29904;51.058;5.378;2023-03-15T08:37:58;10.43;;;6.10;;
44228;SDS011;29904;51.058;5.378;2023-03-15T08:40:26;10.15;;;5.78;;
44228;SDS011;29904;51.058;5.378;2023-03-15T08:42:53;10.52;;;6.55;;
44228;SDS011;29904;51.058;5.378;2023-03-15T08:45:19;9.50;;;6.30;;
44228;SDS011;29904;51.058;5.378;2023-03-15T08:47:45;9.35;;;5.60;;
44228;SDS011;29904;51.058;5.378;2023-03-15T08:50:11;9.10;;;4.53;;
44228;SDS011;29904;51.058;5.378;2023-03-15T08:52:39;6.90;;;4.30;;
44228;SDS011;29904;51.058;5.378;2023-03-15T08:55:05;7.10;;;3.40;;
44228;SDS011;29904;51.058;5.378;2023-03-15T08:57:32;7.50;;;4.35;;
44228;SDS011;29904;51.058;5.378;2023-03-15T08:59:58;6.30;;;3.83;;
44228;SDS011;29904;51.058;5.378;2023-03-15T09:02:25;5.65;;;3.30;;
44228;SDS011;29904;51.058;5.378;2023-03-15T09:04:54;6.53;;;3.50;;
44228;SDS011;29904;51.058;5.378;2023-03-15T09:07:19;5.80;;;2.93;;
44228;SDS011;29904;51.058;5.378;2023-03-15T09:09:46;5.13;;;3.08;;
44228;SDS011;29904;51.058;5.378;2023-03-15T09:12:15;6.88;;;2.70;;
44228;SDS011;29904;51.058;5.378;2023-03-15T09:14:42;4.78;;;2.78;;
44228;SDS011;29904;51.058;5.378;2023-03-15T09:17:08;5.53;;;2.47;;
44228;SDS011;29904;51.058;5.378;2023-03-15T09:19:34;6.43;;;3.50;;
44228;SDS011;29904;51.058;5.378;2023-03-15T09:22:00;6.47;;;3.50;;
44228;SDS011;29904;51.058;5.378;2023-03-15T09:24:26;6.53;;;4.40;;
44228;SDS011;29904;51.058;5.378;2023-03-15T09:26:52;5.80;;;2.60;;
44228;SDS011;29904;51.058;5.378;2023-03-15T09:29:17;6.17;;;2.87;;
44228;SDS011;29904;51.058;5.378;2023-03-15T09:31:43;4.85;;;2.63;;
44228;SDS011;29904;51.058;5.378;2023-03-15T09:34:09;4.53;;;2.22;;
44228;SDS011;29904;51.058;5.378;2023-03-15T09:36:35;7.03;;;2.10;;
44228;SDS011;29904;51.058;5.378;2023-03-15T09:39:00;4.15;;;1.60;;
44228;SDS011;29904;51.058;5.378;2023-03-15T09:41:43;6.28;;;1.70;;
44228;SDS011;29904;51.058;5.378;2023-03-15T09:44:12;5.93;;;1.40;;
44228;SDS011;29904;51.058;5.378;2023-03-15T09:50:03;3.67;;;1.30;;
44228;SDS011;29904;51.058;5.378;2023-03-15T09:52:51;3.67;;;1.30;;
44228;SDS011;29904;51.058;5.378;2023-03-15T09:55:25;2.85;;;1.08;;
44228;SDS011;29904;51.058;5.378;2023-03-15T09:57:53;4.45;;;1.33;;
44228;SDS011;29904;51.058;5.378;2023-03-15T10:00:39;4.47;;;1.02;;
44228;SDS011;29904;51.058;5.378;2023-03-15T10:03:05;3.67;;;1.20;;
44228;SDS011;29904;51.058;5.378;2023-03-15T10:05:56;5.68;;;1.35;;
44228;SDS011;29904;51.058;5.378;2023-03-15T10:08:26;2.63;;;0.90;;
44228;SDS011;29904;51.058;5.378;2023-03-15T10:13:51;4.47;;;0.70;;
44228;SDS011;29904;51.058;5.378;2023-03-15T10:16:38;4.95;;;1.00;;
44228;SDS011;29904;51.058;5.378;2023-03-15T10:22:10;2.83;;;0.82;;
44228;SDS011;29904;51.058;5.378;2023-03-15T10:27:27;4.63;;;1.45;;
44228;SDS011;29904;51.058;5.378;2023-03-15T10:29:58;3.80;;;1.00;;
44228;SDS011;29904;51.058;5.378;2023-03-15T10:32:34;4.23;;;1.00;;
44228;SDS011;29904;51.058;5.378;2023-03-15T10:35:09;3.45;;;1.20;;
44228;SDS011;29904;51.058;5.378;2023-03-15T10:37:41;5.53;;;1.40;;
44228;SDS011;29904;51.058;5.378;2023-03-15T10:40:07;3.40;;;1.10;;
44228;SDS011;29904;51.058;5.378;2023-03-15T10:42:40;2.35;;;0.93;;
44228;SDS011;29904;51.058;5.378;2023-03-15T10:45:12;3.00;;;1.10;;
44228;SDS011;29904;51.058;5.378;2023-03-15T10:47:44;3.22;;;0.90;;
44228;SDS011;29904;51.058;5.378;2023-03-15T10:50:15;3.28;;;0.80;;
44228;SDS011;29904;51.058;5.378;2023-03-15T10:52:49;3.67;;;1.40;;
44228;SDS011;29904;51.058;5.378;2023-03-15T10:55:19;3.75;;;1.27;;
44228;SDS011;29904;51.058;5.378;2023-03-15T10:57:54;4.97;;;1.00;;
44228;SDS011;29904;51.058;5.378;2023-03-15T11:00:35;6.97;;;1.40;;
44228;SDS011;29904;51.058;5.378;2023-03-15T11:03:05;2.40;;;1.00;;
44228;SDS011;29904;51.058;5.378;2023-03-15T11:05:44;2.15;;;0.80;;
44228;SDS011;29904;51.058;5.378;2023-03-15T11:08:15;4.70;;;0.90;;
44228;SDS011;29904;51.058;5.378;2023-03-15T11:11:05;4.70;;;1.55;;
44228;SDS011;29904;51.058;5.378;2023-03-15T11:13:35;4.68;;;1.17;;
44228;SDS011;29904;51.058;5.378;2023-03-15T11:21:32;2.85;;;0.90;;
44228;SDS011;29904;51.058;5.378;2023-03-15T11:24:01;1.70;;;0.70;;
44228;SDS011;29904;51.058;5.378;2023-03-15T11:26:32;2.58;;;0.80;;
44228;SDS011;29904;51.058;5.378;2023-03-15T11:29:04;3.55;;;1.00;;
44228;SDS011;29904;51.058;5.378;2023-03-15T11:31:38;4.03;;;1.10;;
44228;SDS011;29904;51.058;5.378;2023-03-15T11:37:02;3.40;;;0.90;;
44228;SDS011;29904;51.058;5.378;2023-03-15T11:42:32;2.83;;;0.90;;
44228;SDS011;29904;51.058;5.378;2023-03-15T11:45:03;3.85;;;0.80;;
44228;SDS011;29904;51.058;5.378;2023-03-15T11:47:58;2.30;;;0.82;;
44228;SDS011;29904;51.058;5.378;2023-03-15T11:50:27;2.75;;;0.93;;
44228;SDS011;29904;51.058;5.378;2023-03-15T11:52:54;4.28;;;1.30;;
44228;SDS011;29904;51.058;5.378;2023-03-15T11:55:24;3.70;;;1.10;;
44228;SDS011;29904;51.058;5.378;2023-03-15T11:57:51;2.88;;;1.52;;
44228;SDS011;29904;51.058;5.378;2023-03-15T12:05:49;3.30;;;1.38;;
44228;SDS011;29904;51.058;5.378;2023-03-15T12:08:23;3.63;;;1.30;;
44228;SDS011;29904;51.058;5.378;2023-03-15T12:16:21;2.60;;;1.00;;
44228;SDS011;29904;51.058;5.378;2023-03-15T12:18:49;2.45;;;1.00;;
44228;SDS011;29904;51.058;5.378;2023-03-15T12:21:30;1.67;;;1.00;;
44228;SDS011;29904;51.058;5.378;2023-03-15T12:24:02;3.78;;;1.00;;
44228;SDS011;29904;51.058;5.378;2023-03-15T12:26:31;3.97;;;1.17;;
44228;SDS011;29904;51.058;5.378;2023-03-15T12:29:33;4.40;;;1.50;;
44228;SDS011;29904;51.058;5.378;2023-03-15T12:37:05;3.00;;;1.20;;
44228;SDS011;29904;51.058;5.378;2023-03-15T12:39:38;2.20;;;1.00;;
44228;SDS011;29904;51.058;5.378;2023-03-15T12:42:10;1.70;;;0.90;;
44228;SDS011;29904;51.058;5.378;2023-03-15T12:44:38;2.25;;;1.20;;
44228;SDS011;29904;51.058;5.378;2023-03-15T12:47:08;3.45;;;1.27;;
44228;SDS011;29904;51.058;5.378;2023-03-15T12:49:42;1.67;;;0.90;;
44228;SDS011;29904;51.058;5.378;2023-03-15T12:54:53;1.80;;;0.90;;
44228;SDS011;29904;51.058;5.378;2023-03-15T12:59:56;2.80;;;1.17;;
44228;SDS011;29904;51.058;5.378;2023-03-15T13:02:34;2.50;;;0.90;;
44228;SDS011;29904;51.058;5.378;2023-03-15T13:05:13;2.42;;;1.00;;
44228;SDS011;29904;51.058;5.378;2023-03-15T13:13:22;3.13;;;0.90;;
44228;SDS011;29904;51.058;5.378;2023-03-15T13:18:31;1.85;;;0.90;;
44228;SDS011;29904;51.058;5.378;2023-03-15T13:21:17;2.35;;;0.80;;
44228;SDS011;29904;51.058;5.378;2023-03-15T13:23:50;2.90;;;0.90;;
44228;SDS011;29904;51.058;5.378;2023-03-15T13:26:22;1.55;;;0.80;;
44228;SDS011;29904;51.058;5.378;2023-03-15T13:31:31;1.50;;;0.70;;
44228;SDS011;29904;51.058;5.378;2023-03-15T13:34:18;2.53;;;1.00;;
44228;SDS011;29904;51.058;5.378;2023-03-15T13:36:54;2.22;;;0.90;;
44228;SDS011;29904;51.058;5.378;2023-03-15T13:42:23;2.85;;;0.93;;
44228;SDS011;29904;51.058;5.378;2023-03-15T13:44:43;2.78;;;1.10;;
44228;SDS011;29904;51.058;5.378;2023-03-15T13:47:17;1.83;;;0.70;;
44228;SDS011;29904;51.058;5.378;2023-03-15T13:49:45;1.50;;;0.70;;
44228;SDS011;29904;51.058;5.378;2023-03-15T13:52:15;1.48;;;1.02;;
44228;SDS011;29904;51.058;5.378;2023-03-15T13:54:42;2.08;;;0.68;;
44228;SDS011;29904;51.058;5.378;2023-03-15T13:57:19;1.88;;;0.70;;
44228;SDS011;29904;51.058;5.378;2023-03-15T13:59:50;2.15;;;0.55;;
44228;SDS011;29904;51.058;5.378;2023-03-15T14:02:34;1.90;;;0.60;;
44228;SDS011;29904;51.058;5.378;2023-03-15T14:05:11;2.55;;;0.75;;
44228;SDS011;29904;51.058;5.378;2023-03-15T14:07:41;2.40;;;0.60;;
44228;SDS011;29904;51.058;5.378;2023-03-15T14:12:41;3.25;;;1.05;;
44228;SDS011;29904;51.058;5.378;2023-03-15T14:15:53;1.15;;;0.60;;
44228;SDS011;29904;51.058;5.378;2023-03-15T14:20:39;1.45;;;0.52;;
44228;SDS011;29904;51.058;5.378;2023-03-15T14:23:09;1.23;;;0.60;;
44228;SDS011;29904;51.058;5.378;2023-03-15T14:25:37;1.20;;;0.67;;
44228;SDS011;29904;51.058;5.378;2023-03-15T14:28:04;1.50;;;0.70;;
44228;SDS011;29904;51.058;5.378;2023-03-15T14:30:35;1.25;;;0.70;;
44228;SDS011;29904;51.058;5.378;2023-03-15T14:33:02;1.55;;;0.75;;
44228;SDS011;29904;51.058;5.378;2023-03-15T14:35:42;2.20;;;0.70;;
44228;SDS011;29904;51.058;5.378;2023-03-15T14:38:22;1.27;;;0.60;;
44228;SDS011;29904;51.058;5.378;2023-03-15T14:40:51;2.23;;;0.50;;
44228;SDS011;29904;51.058;5.378;2023-03-15T14:43:19;1.30;;;0.60;;
44228;SDS011;29904;51.058;5.378;2023-03-15T14:45:47;1.20;;;0.50;;
44228;SDS011;29904;51.058;5.378;2023-03-15T14:48:29;0.80;;;0.50;;
44228;SDS011;29904;51.058;5.378;2023-03-15T14:50:59;1.70;;;0.85;;
44228;SDS011;29904;51.058;5.378;2023-03-15T14:53:25;2.30;;;0.80;;
44228;SDS011;29904;51.058;5.378;2023-03-15T14:56:02;2.17;;;0.70;;
44228;SDS011;29904;51.058;5.378;2023-03-15T14:58:30;2.58;;;0.95;;
44228;SDS011;29904;51.058;5.378;2023-03-15T15:00:57;1.33;;;0.75;;
44228;SDS011;29904;51.058;5.378;2023-03-15T15:06:03;2.28;;;0.90;;
44228;SDS011;29904;51.058;5.378;2023-03-15T15:08:33;2.93;;;0.77;;
44228;SDS011;29904;51.058;5.378;2023-03-15T15:11:05;1.73;;;0.80;;
44228;SDS011;29904;51.058;5.378;2023-03-15T15:13:36;1.50;;;0.85;;
44228;SDS011;29904;51.058;5.378;2023-03-15T15:16:04;3.58;;;1.00;;
44228;SDS011;29904;51.058;5.378;2023-03-15T15:18:32;2.30;;;0.93;;
44228;SDS011;29904;51.058;5.378;2023-03-15T15:21:01;1.73;;;0.90;;
44228;SDS011;29904;51.058;5.378;2023-03-15T15:23:39;1.80;;;0.90;;
44228;SDS011;29904;51.058;5.378;2023-03-15T15:26:12;2.10;;;1.00;;
44228;SDS011;29904;51.058;5.378;2023-03-15T15:28:44;1.57;;;0.70;;
44228;SDS011;29904;51.058;5.378;2023-03-15T15:31:16;2.72;;;0.80;;
44228;SDS011;29904;51.058;5.378;2023-03-15T15:33:53;1.92;;;0.90;;
44228;SDS011;29904;51.058;5.378;2023-03-15T15:36:27;1.40;;;0.70;;
44228;SDS011;29904;51.058;5.378;2023-03-15T15:38:55;2.60;;;0.88;;
44228;SDS011;29904;51.058;5.378;2023-03-15T15:41:25;2.35;;;0.90;;
44228;SDS011;29904;51.058;5.378;2023-03-15T15:43:53;2.03;;;0.90;;
44228;SDS011;29904;51.058;5.378;2023-03-15T15:46:19;2.03;;;1.10;;
44228;SDS011;29904;51.058;5.378;2023-03-15T15:48:45;1.93;;;0.90;;
44228;SDS011;29904;51.058;5.378;2023-03-15T15:51:13;2.10;;;1.00;;
44228;SDS011;29904;51.058;5.378;2023-03-15T15:53:59;2.10;;;0.98;;
44228;SDS011;29904;51.058;5.378;2023-03-15T15:56:36;2.10;;;0.80;;
44228;SDS011;29904;51.058;5.378;2023-03-15T15:59:09;2.30;;;0.70;;
44228;SDS011;29904;51.058;5.378;2023-03-15T16:01:38;2.43;;;1.00;;
44228;SDS011;29904;51.058;5.378;2023-03-15T16:04:05;3.08;;;0.90;;
44228;SDS011;29904;51.058;5.378;2023-03-15T16:06:31;2.50;;;0.80;;
44228;SDS011;29904;51.058;5.378;2023-03-15T16:08:57;2.30;;;0.90;;
44228;SDS011;29904;51.058;5.378;2023-03-15T16:11:23;1.83;;;0.90;;
44228;SDS011;29904;51.058;5.378;2023-03-15T16:13:49;2.47;;;0.80;;
44228;SDS011;29904;51.058;5.378;2023-03-15T16:16:18;1.98;;;0.80;;